sensor_id;sensor_type;location;lat;lon;timestamp;P1;durP1;ratioP1;P2;durP2;ratioP2
30681;SDS011;17439;48.092;11.842;2024-03-08T00:01:19;22.70;;;9.35;;
30681;SDS011;17439;48.092;11.842;2024-03-08T00:03:46;19.13;;;8.02;;
30681;SDS011;17439;48.092;11.842;2024-03-08T00:06:12;23.05;;;9.68;;
30681;SDS011;17439;48.092;11.842;2024-03-08T00:08:39;22.98;;;9.57;;
30681;SDS011;17439;48.092;11.842;2024-03-08T00:11:06;22.95;;;9.88;;
30681;SDS011;17439;48.092;11.842;2024-03-08T00:13:33;22.13;;;9.77;;
30681;SDS011;17439;48.092;11.842;2024-03-08T00:16:00;24.20;;;9.40;;
30681;SDS011;17439;48.092;11.842;2024-03-08T00:18:26;19.80;;;9.80;;
30681;SDS011;17439;48.092;11.842;2024-03-08T00:20:53;23.25;;;9.40;;
30681;SDS011;17439;48.092;11.842;2024-03-08T00:23:20;19.85;;;8.25;;
30681;SDS011;17439;48.092;11.842;2024-03-08T00:25:47;21.58;;;8.82;;
30681;SDS011;17439;48.092;11.842;2024-03-08T00:28:14;26.13;;;9.73;;
30681;SDS011;17439;48.092;11.842;2024-03-08T00:30:41;27.73;;;9.57;;
30681;SDS011;17439;48.092;11.842;2024-03-08T00:33:07;21.15;;;8.88;;
30681;SDS011;17439;48.092;11.842;2024-03-08T00:35:34;23.27;;;9.52;;
30681;SDS011;17439;48.092;11.842;2024-03-08T00:38:01;19.00;;;8.75;;
30681;SDS011;17439;48.092;11.842;2024-03-08T00:40:28;18.13;;;7.97;;
30681;SDS011;17439;48.092;11.842;2024-03-08T00:42:55;25.63;;;9.48;;
30681;SDS011;17439;48.092;11.842;2024-03-08T00:45:21;23.75;;;9.98;;
30681;SDS011;17439;48.092;11.842;2024-03-08T00:47:48;21.10;;;9.63;;
30681;SDS011;17439;48.092;11.842;2024-03-08T00:50:15;23.23;;;8.55;;
30681;SDS011;17439;48.092;11.842;2024-03-08T00:52:42;20.67;;;9.20;;
30681;SDS011;17439;48.092;11.842;2024-03-08T00:55:09;22.80;;;9.88;;
30681;SDS011;17439;48.092;11.842;2024-03-08T00:57:36;22.60;;;9.65;;
30681;SDS011;17439;48.092;11.842;2024-03-08T01:00:03;25.85;;;10.70;;
30681;SDS011;17439;48.092;11.842;2024-03-08T01:02:31;21.30;;;10.38;;
30681;SDS011;17439;48.092;11.842;2024-03-08T01:04:58;29.13;;;10.75;;
30681;SDS011;17439;48.092;11.842;2024-03-08T01:07:24;25.83;;;10.25;;
30681;SDS011;17439;48.092;11.842;2024-03-08T01:09:51;19.85;;;9.52;;
30681;SDS011;17439;48.092;11.842;2024-03-08T01:12:18;22.40;;;9.45;;
30681;SDS011;17439;48.092;11.842;2024-03-08T01:14:45;23.10;;;8.55;;
30681;SDS011;17439;48.092;11.842;2024-03-08T01:17:12;24.83;;;10.43;;
30681;SDS011;17439;48.092;11.842;2024-03-08T01:19:39;21.60;;;8.48;;
30681;SDS011;17439;48.092;11.842;2024-03-08T01:22:05;26.90;;;10.07;;
30681;SDS011;17439;48.092;11.842;2024-03-08T01:24:32;24.27;;;10.32;;
30681;SDS011;17439;48.092;11.842;2024-03-08T01:26:59;20.52;;;8.75;;
30681;SDS011;17439;48.092;11.842;2024-03-08T01:29:26;21.83;;;9.57;;
30681;SDS011;17439;48.092;11.842;2024-03-08T01:31:53;26.38;;;9.90;;
30681;SDS011;17439;48.092;11.842;2024-03-08T01:34:19;23.98;;;9.80;;
30681;SDS011;17439;48.092;11.842;2024-03-08T01:36:46;21.23;;;8.35;;
30681;SDS011;17439;48.092;11.842;2024-03-08T01:39:13;20.70;;;9.35;;
30681;SDS011;17439;48.092;11.842;2024-03-08T01:41:40;21.02;;;10.18;;
30681;SDS011;17439;48.092;11.842;2024-03-08T01:44:07;24.83;;;10.93;;
30681;SDS011;17439;48.092;11.842;2024-03-08T01:46:33;26.40;;;9.32;;
30681;SDS011;17439;48.092;11.842;2024-03-08T01:49:01;25.75;;;10.25;;
30681;SDS011;17439;48.092;11.842;2024-03-08T01:51:29;21.15;;;9.27;;
30681;SDS011;17439;48.092;11.842;2024-03-08T01:53:56;21.15;;;8.60;;
30681;SDS011;17439;48.092;11.842;2024-03-08T01:56:24;24.83;;;10.20;;
30681;SDS011;17439;48.092;11.842;2024-03-08T01:58:51;21.77;;;8.60;;
30681;SDS011;17439;48.092;11.842;2024-03-08T02:01:18;27.13;;;10.63;;
30681;SDS011;17439;48.092;11.842;2024-03-08T02:03:45;24.42;;;11.20;;
30681;SDS011;17439;48.092;11.842;2024-03-08T02:06:12;32.53;;;12.10;;
30681;SDS011;17439;48.092;11.842;2024-03-08T02:08:39;27.05;;;9.23;;
30681;SDS011;17439;48.092;11.842;2024-03-08T02:11:06;24.25;;;10.55;;
30681;SDS011;17439;48.092;11.842;2024-03-08T02:13:32;25.15;;;11.77;;
30681;SDS011;17439;48.092;11.842;2024-03-08T02:15:59;25.65;;;9.75;;
30681;SDS011;17439;48.092;11.842;2024-03-08T02:18:27;24.77;;;9.70;;
30681;SDS011;17439;48.092;11.842;2024-03-08T02:20:56;23.92;;;10.50;;
30681;SDS011;17439;48.092;11.842;2024-03-08T02:23:24;25.30;;;10.60;;
30681;SDS011;17439;48.092;11.842;2024-03-08T02:25:53;24.63;;;10.27;;
30681;SDS011;17439;48.092;11.842;2024-03-08T02:28:20;32.78;;;11.15;;
30681;SDS011;17439;48.092;11.842;2024-03-08T02:30:47;31.38;;;11.25;;
30681;SDS011;17439;48.092;11.842;2024-03-08T02:33:15;35.55;;;12.90;;
30681;SDS011;17439;48.092;11.842;2024-03-08T02:35:45;25.25;;;11.35;;
30681;SDS011;17439;48.092;11.842;2024-03-08T02:38:13;28.83;;;11.23;;
30681;SDS011;17439;48.092;11.842;2024-03-08T02:40:47;26.55;;;11.15;;
30681;SDS011;17439;48.092;11.842;2024-03-08T02:43:16;28.02;;;11.88;;
30681;SDS011;17439;48.092;11.842;2024-03-08T02:45:44;35.10;;;13.82;;
30681;SDS011;17439;48.092;11.842;2024-03-08T02:48:11;30.73;;;11.73;;
30681;SDS011;17439;48.092;11.842;2024-03-08T02:53:06;28.77;;;11.35;;
30681;SDS011;17439;48.092;11.842;2024-03-08T02:55:33;22.33;;;10.05;;
30681;SDS011;17439;48.092;11.842;2024-03-08T02:57:59;29.85;;;10.98;;
30681;SDS011;17439;48.092;11.842;2024-03-08T03:00:26;27.23;;;10.63;;
30681;SDS011;17439;48.092;11.842;2024-03-08T03:02:53;26.40;;;11.63;;
30681;SDS011;17439;48.092;11.842;2024-03-08T03:05:21;31.77;;;11.60;;
30681;SDS011;17439;48.092;11.842;2024-03-08T03:07:47;29.05;;;11.70;;
30681;SDS011;17439;48.092;11.842;2024-03-08T03:10:16;26.77;;;13.10;;
30681;SDS011;17439;48.092;11.842;2024-03-08T03:12:44;29.85;;;11.90;;
30681;SDS011;17439;48.092;11.842;2024-03-08T03:15:13;29.48;;;11.95;;
30681;SDS011;17439;48.092;11.842;2024-03-08T03:17:40;29.67;;;11.75;;
30681;SDS011;17439;48.092;11.842;2024-03-08T03:20:07;34.75;;;11.77;;
30681;SDS011;17439;48.092;11.842;2024-03-08T03:22:34;25.23;;;11.52;;
30681;SDS011;17439;48.092;11.842;2024-03-08T03:25:02;28.48;;;11.82;;
30681;SDS011;17439;48.092;11.842;2024-03-08T03:27:30;32.30;;;11.83;;
30681;SDS011;17439;48.092;11.842;2024-03-08T03:29:56;29.58;;;11.82;;
30681;SDS011;17439;48.092;11.842;2024-03-08T03:32:23;29.02;;;11.77;;
30681;SDS011;17439;48.092;11.842;2024-03-08T03:34:50;31.17;;;12.88;;
30681;SDS011;17439;48.092;11.842;2024-03-08T03:37:17;29.52;;;12.40;;
30681;SDS011;17439;48.092;11.842;2024-03-08T03:39:44;29.23;;;12.10;;
30681;SDS011;17439;48.092;11.842;2024-03-08T03:42:11;30.48;;;13.45;;
30681;SDS011;17439;48.092;11.842;2024-03-08T03:44:38;32.58;;;14.30;;
30681;SDS011;17439;48.092;11.842;2024-03-08T03:47:04;31.25;;;13.45;;
30681;SDS011;17439;48.092;11.842;2024-03-08T03:49:31;33.83;;;13.48;;
30681;SDS011;17439;48.092;11.842;2024-03-08T03:51:58;31.70;;;11.40;;
30681;SDS011;17439;48.092;11.842;2024-03-08T03:54:25;36.38;;;13.73;;
30681;SDS011;17439;48.092;11.842;2024-03-08T03:56:52;33.08;;;12.93;;
30681;SDS011;17439;48.092;11.842;2024-03-08T03:59:18;37.03;;;14.25;;
30681;SDS011;17439;48.092;11.842;2024-03-08T04:01:45;38.40;;;15.07;;
30681;SDS011;17439;48.092;11.842;2024-03-08T04:04:12;42.92;;;17.25;;
30681;SDS011;17439;48.092;11.842;2024-03-08T04:06:39;40.55;;;15.95;;
30681;SDS011;17439;48.092;11.842;2024-03-08T04:09:06;26.90;;;12.52;;
30681;SDS011;17439;48.092;11.842;2024-03-08T04:11:33;30.50;;;14.43;;
30681;SDS011;17439;48.092;11.842;2024-03-08T04:14:00;37.67;;;15.27;;
30681;SDS011;17439;48.092;11.842;2024-03-08T04:16:26;34.15;;;14.52;;
30681;SDS011;17439;48.092;11.842;2024-03-08T04:18:53;33.80;;;14.65;;
30681;SDS011;17439;48.092;11.842;2024-03-08T04:21:20;33.75;;;14.50;;
30681;SDS011;17439;48.092;11.842;2024-03-08T04:23:47;37.22;;;14.77;;
30681;SDS011;17439;48.092;11.842;2024-03-08T04:26:14;33.90;;;15.25;;
30681;SDS011;17439;48.092;11.842;2024-03-08T04:28:44;30.80;;;14.25;;
30681;SDS011;17439;48.092;11.842;2024-03-08T04:31:11;33.30;;;13.88;;
30681;SDS011;17439;48.092;11.842;2024-03-08T04:33:38;40.33;;;14.52;;
30681;SDS011;17439;48.092;11.842;2024-03-08T04:36:05;37.13;;;14.73;;
30681;SDS011;17439;48.092;11.842;2024-03-08T04:38:32;32.08;;;13.60;;
30681;SDS011;17439;48.092;11.842;2024-03-08T04:40:59;29.15;;;12.07;;
30681;SDS011;17439;48.092;11.842;2024-03-08T04:43:26;37.28;;;13.80;;
30681;SDS011;17439;48.092;11.842;2024-03-08T04:45:54;32.67;;;13.60;;
30681;SDS011;17439;48.092;11.842;2024-03-08T04:48:21;38.97;;;15.38;;
30681;SDS011;17439;48.092;11.842;2024-03-08T04:50:48;28.27;;;11.85;;
30681;SDS011;17439;48.092;11.842;2024-03-08T04:53:14;34.50;;;14.85;;
30681;SDS011;17439;48.092;11.842;2024-03-08T04:55:41;33.90;;;14.18;;
30681;SDS011;17439;48.092;11.842;2024-03-08T04:58:08;38.38;;;14.55;;
30681;SDS011;17439;48.092;11.842;2024-03-08T05:00:35;32.70;;;14.10;;
30681;SDS011;17439;48.092;11.842;2024-03-08T05:03:02;32.58;;;13.25;;
30681;SDS011;17439;48.092;11.842;2024-03-08T05:05:29;34.92;;;14.88;;
30681;SDS011;17439;48.092;11.842;2024-03-08T05:07:55;36.78;;;14.35;;
30681;SDS011;17439;48.092;11.842;2024-03-08T05:10:22;32.45;;;13.95;;
30681;SDS011;17439;48.092;11.842;2024-03-08T05:12:49;28.48;;;12.98;;
30681;SDS011;17439;48.092;11.842;2024-03-08T05:15:17;30.67;;;12.70;;
30681;SDS011;17439;48.092;11.842;2024-03-08T05:17:44;37.85;;;15.57;;
30681;SDS011;17439;48.092;11.842;2024-03-08T05:20:11;36.92;;;15.77;;
30681;SDS011;17439;48.092;11.842;2024-03-08T05:22:38;32.30;;;12.18;;
30681;SDS011;17439;48.092;11.842;2024-03-08T05:25:05;27.15;;;11.82;;
30681;SDS011;17439;48.092;11.842;2024-03-08T05:30:00;40.28;;;16.63;;
30681;SDS011;17439;48.092;11.842;2024-03-08T05:32:27;33.57;;;13.17;;
30681;SDS011;17439;48.092;11.842;2024-03-08T05:34:57;28.42;;;13.10;;
30681;SDS011;17439;48.092;11.842;2024-03-08T05:37:23;36.85;;;13.35;;
30681;SDS011;17439;48.092;11.842;2024-03-08T05:39:51;35.88;;;14.38;;
30681;SDS011;17439;48.092;11.842;2024-03-08T05:42:17;37.85;;;16.63;;
30681;SDS011;17439;48.092;11.842;2024-03-08T05:44:44;31.27;;;13.30;;
30681;SDS011;17439;48.092;11.842;2024-03-08T05:47:11;39.42;;;14.65;;
30681;SDS011;17439;48.092;11.842;2024-03-08T05:49:38;37.35;;;14.88;;
30681;SDS011;17439;48.092;11.842;2024-03-08T05:52:04;38.50;;;15.57;;
30681;SDS011;17439;48.092;11.842;2024-03-08T05:54:31;37.50;;;13.65;;
30681;SDS011;17439;48.092;11.842;2024-03-08T05:56:58;37.08;;;14.50;;
30681;SDS011;17439;48.092;11.842;2024-03-08T05:59:25;39.20;;;14.43;;
30681;SDS011;17439;48.092;11.842;2024-03-08T06:01:52;35.50;;;14.13;;
30681;SDS011;17439;48.092;11.842;2024-03-08T06:04:19;39.78;;;15.02;;
30681;SDS011;17439;48.092;11.842;2024-03-08T06:06:45;40.17;;;14.32;;
30681;SDS011;17439;48.092;11.842;2024-03-08T06:09:17;39.13;;;15.35;;
30681;SDS011;17439;48.092;11.842;2024-03-08T06:11:44;43.72;;;16.63;;
30681;SDS011;17439;48.092;11.842;2024-03-08T06:14:11;44.97;;;17.43;;
30681;SDS011;17439;48.092;11.842;2024-03-08T06:16:38;38.13;;;13.68;;
30681;SDS011;17439;48.092;11.842;2024-03-08T06:19:05;33.25;;;13.57;;
30681;SDS011;17439;48.092;11.842;2024-03-08T06:21:32;35.03;;;14.82;;
30681;SDS011;17439;48.092;11.842;2024-03-08T06:23:59;46.20;;;15.48;;
30681;SDS011;17439;48.092;11.842;2024-03-08T06:26:26;38.83;;;14.90;;
30681;SDS011;17439;48.092;11.842;2024-03-08T06:28:56;34.17;;;14.32;;
30681;SDS011;17439;48.092;11.842;2024-03-08T06:31:23;38.97;;;15.75;;
30681;SDS011;17439;48.092;11.842;2024-03-08T06:33:50;39.67;;;15.90;;
30681;SDS011;17439;48.092;11.842;2024-03-08T06:36:17;36.73;;;14.30;;
30681;SDS011;17439;48.092;11.842;2024-03-08T06:38:45;45.30;;;16.10;;
30681;SDS011;17439;48.092;11.842;2024-03-08T06:41:12;38.97;;;14.53;;
30681;SDS011;17439;48.092;11.842;2024-03-08T06:43:39;34.95;;;13.48;;
30681;SDS011;17439;48.092;11.842;2024-03-08T06:46:06;37.83;;;14.88;;
30681;SDS011;17439;48.092;11.842;2024-03-08T06:48:33;38.17;;;14.35;;
30681;SDS011;17439;48.092;11.842;2024-03-08T06:51:00;39.47;;;15.55;;
30681;SDS011;17439;48.092;11.842;2024-03-08T06:53:27;46.80;;;17.30;;
30681;SDS011;17439;48.092;11.842;2024-03-08T06:55:54;46.35;;;16.00;;
30681;SDS011;17439;48.092;11.842;2024-03-08T06:58:20;41.28;;;15.23;;
30681;SDS011;17439;48.092;11.842;2024-03-08T07:00:47;41.35;;;16.17;;
30681;SDS011;17439;48.092;11.842;2024-03-08T07:03:14;45.88;;;15.90;;
30681;SDS011;17439;48.092;11.842;2024-03-08T07:05:41;40.30;;;16.83;;
30681;SDS011;17439;48.092;11.842;2024-03-08T07:08:08;41.00;;;16.17;;
30681;SDS011;17439;48.092;11.842;2024-03-08T07:10:35;34.42;;;13.38;;
30681;SDS011;17439;48.092;11.842;2024-03-08T07:13:01;38.38;;;16.77;;
30681;SDS011;17439;48.092;11.842;2024-03-08T07:15:28;50.35;;;15.43;;
30681;SDS011;17439;48.092;11.842;2024-03-08T07:17:55;46.85;;;17.70;;
30681;SDS011;17439;48.092;11.842;2024-03-08T07:20:22;46.28;;;14.63;;
30681;SDS011;17439;48.092;11.842;2024-03-08T07:22:49;35.15;;;14.82;;
30681;SDS011;17439;48.092;11.842;2024-03-08T07:25:16;41.92;;;15.30;;
30681;SDS011;17439;48.092;11.842;2024-03-08T07:27:43;41.97;;;15.98;;
30681;SDS011;17439;48.092;11.842;2024-03-08T07:30:10;35.60;;;15.25;;
30681;SDS011;17439;48.092;11.842;2024-03-08T07:32:37;44.10;;;16.20;;
30681;SDS011;17439;48.092;11.842;2024-03-08T07:35:04;33.45;;;13.98;;
30681;SDS011;17439;48.092;11.842;2024-03-08T07:37:31;34.22;;;12.90;;
30681;SDS011;17439;48.092;11.842;2024-03-08T07:39:58;39.05;;;14.68;;
30681;SDS011;17439;48.092;11.842;2024-03-08T07:42:25;40.75;;;14.65;;
30681;SDS011;17439;48.092;11.842;2024-03-08T07:44:55;41.63;;;15.43;;
30681;SDS011;17439;48.092;11.842;2024-03-08T07:47:22;47.25;;;15.82;;
30681;SDS011;17439;48.092;11.842;2024-03-08T07:49:50;44.08;;;17.63;;
30681;SDS011;17439;48.092;11.842;2024-03-08T07:52:17;42.10;;;14.65;;
30681;SDS011;17439;48.092;11.842;2024-03-08T07:54:44;47.15;;;17.95;;
30681;SDS011;17439;48.092;11.842;2024-03-08T07:57:11;43.03;;;16.75;;
30681;SDS011;17439;48.092;11.842;2024-03-08T07:59:38;41.38;;;15.88;;
30681;SDS011;17439;48.092;11.842;2024-03-08T08:02:05;38.10;;;15.48;;
30681;SDS011;17439;48.092;11.842;2024-03-08T08:04:31;40.00;;;15.10;;
30681;SDS011;17439;48.092;11.842;2024-03-08T08:06:58;37.55;;;15.05;;
30681;SDS011;17439;48.092;11.842;2024-03-08T08:09:26;33.15;;;14.75;;
30681;SDS011;17439;48.092;11.842;2024-03-08T08:11:52;40.33;;;14.53;;
30681;SDS011;17439;48.092;11.842;2024-03-08T08:14:19;34.47;;;14.63;;
30681;SDS011;17439;48.092;11.842;2024-03-08T08:16:46;35.08;;;13.68;;
30681;SDS011;17439;48.092;11.842;2024-03-08T08:19:14;37.93;;;14.33;;
30681;SDS011;17439;48.092;11.842;2024-03-08T08:21:41;39.65;;;15.77;;
30681;SDS011;17439;48.092;11.842;2024-03-08T08:24:08;40.63;;;15.88;;
30681;SDS011;17439;48.092;11.842;2024-03-08T08:26:35;36.72;;;12.35;;
30681;SDS011;17439;48.092;11.842;2024-03-08T08:29:05;48.10;;;18.35;;
30681;SDS011;17439;48.092;11.842;2024-03-08T08:31:32;46.13;;;16.80;;
30681;SDS011;17439;48.092;11.842;2024-03-08T08:33:59;38.22;;;14.00;;
30681;SDS011;17439;48.092;11.842;2024-03-08T08:36:25;40.10;;;14.75;;
30681;SDS011;17439;48.092;11.842;2024-03-08T08:38:52;41.38;;;14.35;;
30681;SDS011;17439;48.092;11.842;2024-03-08T08:41:19;40.97;;;16.98;;
30681;SDS011;17439;48.092;11.842;2024-03-08T08:43:46;40.95;;;16.25;;
30681;SDS011;17439;48.092;11.842;2024-03-08T08:46:28;38.30;;;15.38;;
30681;SDS011;17439;48.092;11.842;2024-03-08T08:48:55;39.85;;;16.13;;
30681;SDS011;17439;48.092;11.842;2024-03-08T08:51:22;37.63;;;14.02;;
30681;SDS011;17439;48.092;11.842;2024-03-08T08:53:48;34.08;;;12.65;;
30681;SDS011;17439;48.092;11.842;2024-03-08T08:56:15;34.80;;;14.48;;
30681;SDS011;17439;48.092;11.842;2024-03-08T08:58:42;32.08;;;13.95;;
30681;SDS011;17439;48.092;11.842;2024-03-08T09:01:09;37.47;;;14.30;;
30681;SDS011;17439;48.092;11.842;2024-03-08T09:03:36;44.22;;;15.02;;
30681;SDS011;17439;48.092;11.842;2024-03-08T09:06:04;41.38;;;16.02;;
30681;SDS011;17439;48.092;11.842;2024-03-08T09:08:31;40.27;;;15.03;;
30681;SDS011;17439;48.092;11.842;2024-03-08T09:10:59;45.08;;;17.25;;
30681;SDS011;17439;48.092;11.842;2024-03-08T09:13:26;36.78;;;16.05;;
30681;SDS011;17439;48.092;11.842;2024-03-08T09:15:58;35.55;;;14.57;;
30681;SDS011;17439;48.092;11.842;2024-03-08T09:18:25;32.10;;;14.45;;
30681;SDS011;17439;48.092;11.842;2024-03-08T09:20:52;33.78;;;12.88;;
30681;SDS011;17439;48.092;11.842;2024-03-08T09:23:21;37.13;;;14.57;;
30681;SDS011;17439;48.092;11.842;2024-03-08T09:25:48;32.35;;;12.63;;
30681;SDS011;17439;48.092;11.842;2024-03-08T09:28:15;30.92;;;12.95;;
30681;SDS011;17439;48.092;11.842;2024-03-08T09:30:42;38.00;;;15.80;;
30681;SDS011;17439;48.092;11.842;2024-03-08T09:33:22;36.75;;;15.10;;
30681;SDS011;17439;48.092;11.842;2024-03-08T09:35:49;32.35;;;11.82;;
30681;SDS011;17439;48.092;11.842;2024-03-08T09:38:16;30.80;;;13.35;;
30681;SDS011;17439;48.092;11.842;2024-03-08T09:40:43;39.05;;;14.60;;
30681;SDS011;17439;48.092;11.842;2024-03-08T09:43:10;37.42;;;13.60;;
30681;SDS011;17439;48.092;11.842;2024-03-08T09:45:37;36.15;;;14.27;;
30681;SDS011;17439;48.092;11.842;2024-03-08T09:48:04;33.95;;;13.60;;
30681;SDS011;17439;48.092;11.842;2024-03-08T09:50:31;35.25;;;13.13;;
30681;SDS011;17439;48.092;11.842;2024-03-08T09:52:58;32.45;;;13.95;;
30681;SDS011;17439;48.092;11.842;2024-03-08T09:55:25;34.47;;;13.57;;
30681;SDS011;17439;48.092;11.842;2024-03-08T09:57:53;30.58;;;12.18;;
30681;SDS011;17439;48.092;11.842;2024-03-08T10:00:20;31.27;;;13.27;;
30681;SDS011;17439;48.092;11.842;2024-03-08T10:02:47;30.75;;;11.77;;
30681;SDS011;17439;48.092;11.842;2024-03-08T10:05:14;28.85;;;12.40;;
30681;SDS011;17439;48.092;11.842;2024-03-08T10:07:41;28.13;;;12.02;;
30681;SDS011;17439;48.092;11.842;2024-03-08T10:10:08;35.05;;;14.20;;
30681;SDS011;17439;48.092;11.842;2024-03-08T10:12:35;37.58;;;14.45;;
30681;SDS011;17439;48.092;11.842;2024-03-08T10:15:02;39.90;;;14.87;;
30681;SDS011;17439;48.092;11.842;2024-03-08T10:17:29;29.45;;;13.18;;
30681;SDS011;17439;48.092;11.842;2024-03-08T10:19:56;32.53;;;12.30;;
30681;SDS011;17439;48.092;11.842;2024-03-08T10:22:23;32.10;;;14.43;;
30681;SDS011;17439;48.092;11.842;2024-03-08T10:24:52;30.23;;;12.93;;
30681;SDS011;17439;48.092;11.842;2024-03-08T10:27:18;36.22;;;13.68;;
30681;SDS011;17439;48.092;11.842;2024-03-08T10:29:46;33.85;;;14.23;;
30681;SDS011;17439;48.092;11.842;2024-03-08T10:32:14;42.30;;;14.63;;
30681;SDS011;17439;48.092;11.842;2024-03-08T10:34:41;29.85;;;11.95;;
30681;SDS011;17439;48.092;11.842;2024-03-08T10:37:08;32.40;;;13.10;;
30681;SDS011;17439;48.092;11.842;2024-03-08T10:39:41;29.58;;;12.32;;
30681;SDS011;17439;48.092;11.842;2024-03-08T10:42:16;32.92;;;13.73;;
30681;SDS011;17439;48.092;11.842;2024-03-08T10:44:49;27.67;;;11.80;;
30681;SDS011;17439;48.092;11.842;2024-03-08T10:47:26;30.55;;;12.40;;
30681;SDS011;17439;48.092;11.842;2024-03-08T10:50:11;35.83;;;14.18;;
30681;SDS011;17439;48.092;11.842;2024-03-08T10:52:42;35.92;;;13.38;;
30681;SDS011;17439;48.092;11.842;2024-03-08T10:55:09;29.83;;;12.95;;
30681;SDS011;17439;48.092;11.842;2024-03-08T10:57:39;28.27;;;12.57;;
30681;SDS011;17439;48.092;11.842;2024-03-08T11:00:07;29.17;;;12.38;;
30681;SDS011;17439;48.092;11.842;2024-03-08T11:02:34;29.90;;;12.50;;
30681;SDS011;17439;48.092;11.842;2024-03-08T11:05:01;28.70;;;11.27;;
30681;SDS011;17439;48.092;11.842;2024-03-08T11:07:28;25.50;;;11.48;;
30681;SDS011;17439;48.092;11.842;2024-03-08T11:09:55;26.42;;;11.35;;
30681;SDS011;17439;48.092;11.842;2024-03-08T11:12:28;28.08;;;12.50;;
30681;SDS011;17439;48.092;11.842;2024-03-08T11:14:57;30.63;;;13.38;;
30681;SDS011;17439;48.092;11.842;2024-03-08T11:17:39;28.70;;;12.60;;
30681;SDS011;17439;48.092;11.842;2024-03-08T11:20:16;34.22;;;14.70;;
30681;SDS011;17439;48.092;11.842;2024-03-08T11:22:47;27.60;;;10.88;;
30681;SDS011;17439;48.092;11.842;2024-03-08T11:25:49;27.83;;;13.20;;
30681;SDS011;17439;48.092;11.842;2024-03-08T11:30:44;25.65;;;11.50;;
30681;SDS011;17439;48.092;11.842;2024-03-08T11:33:12;26.58;;;11.82;;
30681;SDS011;17439;48.092;11.842;2024-03-08T11:35:40;29.00;;;12.27;;
30681;SDS011;17439;48.092;11.842;2024-03-08T11:38:08;26.65;;;11.85;;
30681;SDS011;17439;48.092;11.842;2024-03-08T11:40:35;30.17;;;11.68;;
30681;SDS011;17439;48.092;11.842;2024-03-08T11:43:02;26.63;;;13.07;;
30681;SDS011;17439;48.092;11.842;2024-03-08T11:45:29;23.83;;;11.25;;
30681;SDS011;17439;48.092;11.842;2024-03-08T11:47:56;24.65;;;12.00;;
30681;SDS011;17439;48.092;11.842;2024-03-08T11:50:24;26.42;;;11.70;;
30681;SDS011;17439;48.092;11.842;2024-03-08T11:52:51;24.35;;;11.30;;
30681;SDS011;17439;48.092;11.842;2024-03-08T11:55:18;29.38;;;11.88;;
30681;SDS011;17439;48.092;11.842;2024-03-08T11:57:44;30.65;;;12.80;;
30681;SDS011;17439;48.092;11.842;2024-03-08T12:00:15;27.73;;;11.52;;
30681;SDS011;17439;48.092;11.842;2024-03-08T12:02:43;23.90;;;11.80;;
30681;SDS011;17439;48.092;11.842;2024-03-08T12:05:10;31.40;;;12.73;;
30681;SDS011;17439;48.092;11.842;2024-03-08T12:07:36;26.52;;;12.48;;
30681;SDS011;17439;48.092;11.842;2024-03-08T12:10:19;25.33;;;11.43;;
30681;SDS011;17439;48.092;11.842;2024-03-08T12:12:48;24.50;;;10.98;;
30681;SDS011;17439;48.092;11.842;2024-03-08T12:15:16;25.38;;;12.18;;
30681;SDS011;17439;48.092;11.842;2024-03-08T12:17:45;25.05;;;11.85;;
30681;SDS011;17439;48.092;11.842;2024-03-08T12:20:15;25.33;;;11.77;;
30681;SDS011;17439;48.092;11.842;2024-03-08T12:22:42;25.63;;;11.80;;
30681;SDS011;17439;48.092;11.842;2024-03-08T12:25:13;25.92;;;12.25;;
30681;SDS011;17439;48.092;11.842;2024-03-08T12:27:41;35.13;;;11.95;;
30681;SDS011;17439;48.092;11.842;2024-03-08T12:30:22;21.30;;;9.80;;
30681;SDS011;17439;48.092;11.842;2024-03-08T12:32:53;22.00;;;9.98;;
30681;SDS011;17439;48.092;11.842;2024-03-08T12:35:25;19.65;;;9.35;;
30681;SDS011;17439;48.092;11.842;2024-03-08T12:37:54;23.98;;;10.40;;
30681;SDS011;17439;48.092;11.842;2024-03-08T12:40:25;20.00;;;9.50;;
30681;SDS011;17439;48.092;11.842;2024-03-08T12:42:57;22.73;;;10.68;;
30681;SDS011;17439;48.092;11.842;2024-03-08T12:45:26;22.45;;;9.98;;
30681;SDS011;17439;48.092;11.842;2024-03-08T12:47:54;22.20;;;10.45;;
30681;SDS011;17439;48.092;11.842;2024-03-08T12:50:22;19.02;;;9.63;;
30681;SDS011;17439;48.092;11.842;2024-03-08T12:52:49;19.60;;;9.75;;
30681;SDS011;17439;48.092;11.842;2024-03-08T12:55:19;20.73;;;9.43;;
30681;SDS011;17439;48.092;11.842;2024-03-08T12:57:46;19.10;;;9.10;;
30681;SDS011;17439;48.092;11.842;2024-03-08T13:00:14;19.83;;;8.75;;
30681;SDS011;17439;48.092;11.842;2024-03-08T13:02:41;22.43;;;9.73;;
30681;SDS011;17439;48.092;11.842;2024-03-08T13:05:08;21.65;;;9.80;;
30681;SDS011;17439;48.092;11.842;2024-03-08T13:07:35;21.50;;;11.13;;
30681;SDS011;17439;48.092;11.842;2024-03-08T13:10:02;22.25;;;9.88;;
30681;SDS011;17439;48.092;11.842;2024-03-08T13:12:29;19.30;;;9.93;;
30681;SDS011;17439;48.092;11.842;2024-03-08T13:14:56;17.80;;;9.10;;
30681;SDS011;17439;48.092;11.842;2024-03-08T13:17:23;24.45;;;10.50;;
30681;SDS011;17439;48.092;11.842;2024-03-08T13:19:50;25.00;;;10.40;;
30681;SDS011;17439;48.092;11.842;2024-03-08T13:22:17;26.30;;;12.27;;
30681;SDS011;17439;48.092;11.842;2024-03-08T13:24:44;26.02;;;12.15;;
30681;SDS011;17439;48.092;11.842;2024-03-08T13:27:11;26.98;;;11.90;;
30681;SDS011;17439;48.092;11.842;2024-03-08T13:29:37;21.05;;;11.02;;
30681;SDS011;17439;48.092;11.842;2024-03-08T13:32:04;19.55;;;9.88;;
30681;SDS011;17439;48.092;11.842;2024-03-08T13:34:31;24.35;;;12.00;;
30681;SDS011;17439;48.092;11.842;2024-03-08T13:36:58;25.92;;;11.85;;
30681;SDS011;17439;48.092;11.842;2024-03-08T13:39:25;23.23;;;12.02;;
30681;SDS011;17439;48.092;11.842;2024-03-08T13:41:52;23.67;;;10.07;;
30681;SDS011;17439;48.092;11.842;2024-03-08T13:44:18;26.48;;;12.57;;
30681;SDS011;17439;48.092;11.842;2024-03-08T13:46:46;24.35;;;11.90;;
30681;SDS011;17439;48.092;11.842;2024-03-08T13:49:18;24.15;;;12.60;;
30681;SDS011;17439;48.092;11.842;2024-03-08T13:51:44;22.90;;;11.23;;
30681;SDS011;17439;48.092;11.842;2024-03-08T13:54:11;23.83;;;11.85;;
30681;SDS011;17439;48.092;11.842;2024-03-08T13:56:38;23.40;;;12.00;;
30681;SDS011;17439;48.092;11.842;2024-03-08T13:59:05;26.27;;;11.38;;
30681;SDS011;17439;48.092;11.842;2024-03-08T14:01:32;27.27;;;12.05;;
30681;SDS011;17439;48.092;11.842;2024-03-08T14:03:59;25.92;;;13.75;;
30681;SDS011;17439;48.092;11.842;2024-03-08T14:06:25;22.35;;;11.32;;
30681;SDS011;17439;48.092;11.842;2024-03-08T14:08:52;27.20;;;12.65;;
30681;SDS011;17439;48.092;11.842;2024-03-08T14:11:19;27.77;;;12.55;;
30681;SDS011;17439;48.092;11.842;2024-03-08T14:13:46;25.38;;;12.02;;
30681;SDS011;17439;48.092;11.842;2024-03-08T14:16:13;25.50;;;12.07;;
30681;SDS011;17439;48.092;11.842;2024-03-08T14:18:40;25.73;;;11.63;;
30681;SDS011;17439;48.092;11.842;2024-03-08T14:21:07;26.80;;;12.40;;